sensor_id;sensor_type;location;lat;lon;timestamp;pressure;altitude;pressure_sealevel;temperature;humidity
59240;BME280;45010;53.640;10.578;2023-02-10T00:01:44;102402.91;;;24.67;30.63
59240;BME280;45010;53.640;10.578;2023-02-10T00:04:44;102421.16;;;24.85;30.79
59240;BME280;45010;53.640;10.578;2023-02-10T00:07:44;102427.31;;;24.86;31.02
59240;BME280;45010;53.640;10.578;2023-02-10T00:10:45;102429.00;;;24.87;30.76
59240;BME280;45010;53.640;10.578;2023-02-10T00:13:45;102425.22;;;24.81;30.62
59240;BME280;45010;53.640;10.578;2023-02-10T00:16:49;102420.16;;;24.87;30.84
59240;BME280;45010;53.640;10.578;2023-02-10T00:19:50;102422.56;;;24.81;30.68
59240;BME280;45010;53.640;10.578;2023-02-10T00:22:50;102430.81;;;24.87;30.91
59240;BME280;45010;53.640;10.578;2023-02-10T00:25:50;102436.16;;;24.87;30.97
59240;BME280;45010;53.640;10.578;2023-02-10T00:28:51;102434.06;;;24.82;30.72
59240;BME280;45010;53.640;10.578;2023-02-10T00:31:51;102446.66;;;24.88;30.72
59240;BME280;45010;53.640;10.578;2023-02-10T00:34:52;102448.47;;;24.88;30.80
59240;BME280;45010;53.640;10.578;2023-02-10T00:37:53;102449.09;;;24.90;30.63
59240;BME280;45010;53.640;10.578;2023-02-10T00:40:53;102437.19;;;24.85;30.73
59240;BME280;45010;53.640;10.578;2023-02-10T00:43:53;102444.16;;;24.87;30.76
59240;BME280;45010;53.640;10.578;2023-02-10T00:46:54;102449.75;;;24.92;30.71
59240;BME280;45010;53.640;10.578;2023-02-10T00:49:54;102452.44;;;24.92;30.67
59240;BME280;45010;53.640;10.578;2023-02-10T00:52:54;102441.75;;;24.92;30.65
59240;BME280;45010;53.640;10.578;2023-02-10T00:55:55;102442.56;;;24.92;30.65
59240;BME280;45010;53.640;10.578;2023-02-10T00:58:55;102448.75;;;24.93;30.56
59240;BME280;45010;53.640;10.578;2023-02-10T01:01:55;102447.09;;;24.92;30.67
59240;BME280;45010;53.640;10.578;2023-02-10T01:04:56;102448.75;;;24.93;30.82
59240;BME280;45010;53.640;10.578;2023-02-10T01:07:56;102447.91;;;24.92;30.74
59240;BME280;45010;53.640;10.578;2023-02-10T01:11:05;102447.09;;;24.92;30.60
59240;BME280;45010;53.640;10.578;2023-02-10T01:14:06;102446.06;;;24.93;30.40
59240;BME280;45010;53.640;10.578;2023-02-10T01:17:06;102443.41;;;24.93;30.60
59240;BME280;45010;53.640;10.578;2023-02-10T01:20:07;102415.91;;;24.77;30.67
59240;BME280;45010;53.640;10.578;2023-02-10T01:23:08;102435.13;;;24.88;30.58
59240;BME280;45010;53.640;10.578;2023-02-10T01:26:09;102437.81;;;24.88;30.57
59240;BME280;45010;53.640;10.578;2023-02-10T01:29:09;102449.75;;;24.92;30.62
59240;BME280;45010;53.640;10.578;2023-02-10T01:32:10;102457.78;;;24.92;30.62
59240;BME280;45010;53.640;10.578;2023-02-10T01:35:10;102448.75;;;24.93;30.65
59240;BME280;45010;53.640;10.578;2023-02-10T01:38:11;102452.88;;;24.95;30.56
59240;BME280;45010;53.640;10.578;2023-02-10T01:41:12;102434.78;;;24.91;30.45
59240;BME280;45010;53.640;10.578;2023-02-10T01:47:20;102440.72;;;24.93;30.31
59240;BME280;45010;53.640;10.578;2023-02-10T01:50:27;102437.22;;;24.92;30.31
59240;BME280;45010;53.640;10.578;2023-02-10T01:53:29;102427.75;;;24.90;30.23
59240;BME280;45010;53.640;10.578;2023-02-10T01:56:29;102426.50;;;24.85;30.38
59240;BME280;45010;53.640;10.578;2023-02-10T01:59:32;102412.25;;;24.78;30.25
59240;BME280;45010;53.640;10.578;2023-02-10T02:02:33;102426.06;;;24.82;30.41
59240;BME280;45010;53.640;10.578;2023-02-10T02:05:37;102419.25;;;24.79;30.27
59240;BME280;45010;53.640;10.578;2023-02-10T02:08:38;102419.59;;;24.76;30.28
59240;BME280;45010;53.640;10.578;2023-02-10T02:12:06;102428.00;;;24.73;30.44
59240;BME280;45010;53.640;10.578;2023-02-10T02:15:50;102429.22;;;24.70;30.51
59240;BME280;45010;53.640;10.578;2023-02-10T02:32:20;102443.03;;;24.59;30.34
59240;BME280;45010;53.640;10.578;2023-02-10T02:35:26;102430.66;;;24.51;30.29
59240;BME280;45010;53.640;10.578;2023-02-10T02:38:28;102445.25;;;24.55;30.49
59240;BME280;45010;53.640;10.578;2023-02-10T02:41:29;102429.34;;;24.47;30.19
59240;BME280;45010;53.640;10.578;2023-02-10T02:44:30;102445.63;;;24.52;30.42
59240;BME280;45010;53.640;10.578;2023-02-10T02:51:13;102450.69;;;24.47;30.34
59240;BME280;45010;53.640;10.578;2023-02-10T02:54:24;102432.16;;;24.39;30.45
59240;BME280;45010;53.640;10.578;2023-02-10T02:57:34;102439.13;;;24.40;30.40
59240;BME280;45010;53.640;10.578;2023-02-10T03:00:39;102428.84;;;24.37;30.35
59240;BME280;45010;53.640;10.578;2023-02-10T03:03:40;102423.88;;;24.34;30.27
59240;BME280;45010;53.640;10.578;2023-02-10T03:06:41;102429.59;;;24.30;30.35
59240;BME280;45010;53.640;10.578;2023-02-10T03:09:42;102425.28;;;24.29;30.33
59240;BME280;45010;53.640;10.578;2023-02-10T03:12:43;102432.00;;;24.25;30.57
59240;BME280;45010;53.640;10.578;2023-02-10T03:15:43;102432.34;;;24.22;30.40
59240;BME280;45010;53.640;10.578;2023-02-10T03:18:43;102444.22;;;24.20;30.60
59240;BME280;45010;53.640;10.578;2023-02-10T03:21:44;102444.59;;;24.16;30.60
59240;BME280;45010;53.640;10.578;2023-02-10T03:24:44;102444.97;;;24.13;30.56
59240;BME280;45010;53.640;10.578;2023-02-10T03:27:44;102449.84;;;24.10;30.50
59240;BME280;45010;53.640;10.578;2023-02-10T03:30:45;102446.53;;;24.08;30.56
59240;BME280;45010;53.640;10.578;2023-02-10T03:33:49;102457.53;;;24.04;30.55
59240;BME280;45010;53.640;10.578;2023-02-10T03:36:49;102463.25;;;24.01;30.69
59240;BME280;45010;53.640;10.578;2023-02-10T03:39:49;102445.91;;;23.90;30.82
59240;BME280;45010;53.640;10.578;2023-02-10T03:42:50;102462.97;;;23.96;31.06
59240;BME280;45010;53.640;10.578;2023-02-10T03:45:50;102466.03;;;23.93;30.98
59240;BME280;45010;53.640;10.578;2023-02-10T03:48:50;102459.00;;;23.92;30.85
59240;BME280;45010;53.640;10.578;2023-02-10T03:51:51;102466.38;;;23.90;30.84
59240;BME280;45010;53.640;10.578;2023-02-10T03:54:51;102463.06;;;23.88;30.72
59240;BME280;45010;53.640;10.578;2023-02-10T03:57:52;102462.63;;;23.84;30.87
59240;BME280;45010;53.640;10.578;2023-02-10T04:00:52;102458.47;;;23.82;30.79
59240;BME280;45010;53.640;10.578;2023-02-10T04:03:52;102449.00;;;23.79;31.13
59240;BME280;45010;53.640;10.578;2023-02-10T04:06:52;102449.00;;;23.79;30.75
59240;BME280;45010;53.640;10.578;2023-02-10T04:09:53;102444.88;;;23.76;30.75
59240;BME280;45010;53.640;10.578;2023-02-10T04:12:53;102454.88;;;23.74;30.97
59240;BME280;45010;53.640;10.578;2023-02-10T04:16:04;102433.09;;;23.56;31.26
59240;BME280;45010;53.640;10.578;2023-02-10T04:19:05;102475.72;;;23.71;31.02
59240;BME280;45010;53.640;10.578;2023-02-10T04:22:05;102475.94;;;23.69;31.27
59240;BME280;45010;53.640;10.578;2023-02-10T04:25:07;102478.31;;;23.64;31.02
59240;BME280;45010;53.640;10.578;2023-02-10T04:28:08;102485.91;;;23.67;31.19
59240;BME280;45010;53.640;10.578;2023-02-10T04:31:08;102480.75;;;23.65;31.01
59240;BME280;45010;53.640;10.578;2023-02-10T04:34:10;102488.94;;;23.64;31.12
59240;BME280;45010;53.640;10.578;2023-02-10T04:37:10;102481.13;;;23.62;31.00
59240;BME280;45010;53.640;10.578;2023-02-10T04:40:10;102485.63;;;23.62;31.30
59240;BME280;45010;53.640;10.578;2023-02-10T04:43:11;102464.13;;;23.48;31.33
59240;BME280;45010;53.640;10.578;2023-02-10T04:46:11;102479.91;;;23.50;31.30
59240;BME280;45010;53.640;10.578;2023-02-10T04:49:12;102497.84;;;23.56;31.20
59240;BME280;45010;53.640;10.578;2023-02-10T04:52:12;102500.34;;;23.58;31.19
59240;BME280;45010;53.640;10.578;2023-02-10T04:55:13;102497.00;;;23.56;31.55
59240;BME280;45010;53.640;10.578;2023-02-10T04:58:13;102494.34;;;23.56;31.34
59240;BME280;45010;53.640;10.578;2023-02-10T05:01:14;102495.34;;;23.55;31.45
59240;BME280;45010;53.640;10.578;2023-02-10T05:04:14;102483.06;;;23.54;31.47
59240;BME280;45010;53.640;10.578;2023-02-10T05:07:14;102485.88;;;23.52;31.36
59240;BME280;45010;53.640;10.578;2023-02-10T05:10:15;102426.53;;;23.05;31.30
59240;BME280;45010;53.640;10.578;2023-02-10T05:13:15;102499.28;;;23.44;31.62
59240;BME280;45010;53.640;10.578;2023-02-10T05:16:16;102503.75;;;23.43;31.32
59240;BME280;45010;53.640;10.578;2023-02-10T05:19:16;102512.88;;;23.49;31.72
59240;BME280;45010;53.640;10.578;2023-02-10T05:22:17;102491.47;;;23.42;31.58
59240;BME280;45010;53.640;10.578;2023-02-10T05:25:17;102507.09;;;23.45;31.68
59240;BME280;45010;53.640;10.578;2023-02-10T05:28:17;102509.09;;;23.43;31.52
59240;BME280;45010;53.640;10.578;2023-02-10T05:31:18;102515.25;;;23.44;31.56
59240;BME280;45010;53.640;10.578;2023-02-10T05:34:18;102509.94;;;23.44;31.81
59240;BME280;45010;53.640;10.578;2023-02-10T05:37:18;102518.09;;;23.42;31.62
59240;BME280;45010;53.640;10.578;2023-02-10T05:40:19;102525.06;;;23.43;31.81
59240;BME280;45010;53.640;10.578;2023-02-10T05:43:19;102523.41;;;23.42;32.02
59240;BME280;45010;53.640;10.578;2023-02-10T05:46:19;102512.47;;;23.37;31.39
59240;BME280;45010;53.640;10.578;2023-02-10T05:49:20;102515.50;;;23.34;31.71
59240;BME280;45010;53.640;10.578;2023-02-10T05:52:20;102523.78;;;23.39;31.45
59240;BME280;45010;53.640;10.578;2023-02-10T05:55:21;102518.47;;;23.39;31.66
59240;BME280;45010;53.640;10.578;2023-02-10T05:58:21;102516.78;;;23.38;31.69
59240;BME280;45010;53.640;10.578;2023-02-10T06:01:21;102522.09;;;23.38;31.96
59240;BME280;45010;53.640;10.578;2023-02-10T06:04:22;102517.50;;;23.32;31.62
59240;BME280;45010;53.640;10.578;2023-02-10T06:07:22;102510.53;;;23.31;31.70
59240;BME280;45010;53.640;10.578;2023-02-10T06:10:22;102520.84;;;23.34;31.66
59240;BME280;45010;53.640;10.578;2023-02-10T06:13:23;102526.16;;;23.34;31.30
59240;BME280;45010;53.640;10.578;2023-02-10T06:16:24;102526.16;;;23.34;31.67
59240;BME280;45010;53.640;10.578;2023-02-10T06:19:24;102525.50;;;23.32;31.64
59240;BME280;45010;53.640;10.578;2023-02-10T06:22:25;102522.81;;;23.32;31.75
59240;BME280;45010;53.640;10.578;2023-02-10T06:25:25;102538.78;;;23.32;31.88
59240;BME280;45010;53.640;10.578;2023-02-10T06:28:27;102526.16;;;23.25;31.71
59240;BME280;45010;53.640;10.578;2023-02-10T06:31:27;102542.47;;;23.31;31.67
59240;BME280;45010;53.640;10.578;2023-02-10T06:34:28;102537.28;;;23.29;31.72
59240;BME280;45010;53.640;10.578;2023-02-10T06:37:28;102539.13;;;23.29;32.06
59240;BME280;45010;53.640;10.578;2023-02-10T06:40:28;102548.13;;;23.28;31.86
59240;BME280;45010;53.640;10.578;2023-02-10T06:43:29;102544.34;;;23.22;31.96
59240;BME280;45010;53.640;10.578;2023-02-10T06:46:30;102545.97;;;23.23;31.86
59240;BME280;45010;53.640;10.578;2023-02-10T06:49:30;102559.78;;;23.27;31.74
59240;BME280;45010;53.640;10.578;2023-02-10T06:52:31;102558.09;;;23.25;32.55
59240;BME280;45010;53.640;10.578;2023-02-10T06:55:31;102569.59;;;23.26;32.14
59240;BME280;45010;53.640;10.578;2023-02-10T06:58:31;102566.28;;;23.24;32.03
59240;BME280;45010;53.640;10.578;2023-02-10T07:01:32;102577.75;;;23.24;32.02
59240;BME280;45010;53.640;10.578;2023-02-10T07:04:32;102576.75;;;23.25;32.55
59240;BME280;45010;53.640;10.578;2023-02-10T07:07:33;102576.09;;;23.23;32.28
59240;BME280;45010;53.640;10.578;2023-02-10T07:10:33;102576.09;;;23.23;32.36
59240;BME280;45010;53.640;10.578;2023-02-10T07:13:34;102578.75;;;23.23;32.38
59240;BME280;45010;53.640;10.578;2023-02-10T07:16:34;102586.09;;;23.21;32.08
59240;BME280;45010;53.640;10.578;2023-02-10T07:19:34;102593.09;;;23.22;32.01
59240;BME280;45010;53.640;10.578;2023-02-10T07:22:35;102581.75;;;23.20;32.35
59240;BME280;45010;53.640;10.578;2023-02-10T07:25:36;102586.09;;;23.21;32.10
59240;BME280;45010;53.640;10.578;2023-02-10T07:28:36;102588.78;;;23.21;32.45
59240;BME280;45010;53.640;10.578;2023-02-10T07:31:36;102596.75;;;23.21;32.21
59240;BME280;45010;53.640;10.578;2023-02-10T07:34:37;102599.59;;;23.20;32.24
59240;BME280;45010;53.640;10.578;2023-02-10T07:37:40;102605.72;;;23.20;32.45
59240;BME280;45010;53.640;10.578;2023-02-10T07:40:40;102605.44;;;23.15;32.23
59240;BME280;45010;53.640;10.578;2023-02-10T07:43:41;102613.69;;;23.20;32.25
59240;BME280;45010;53.640;10.578;2023-02-10T07:46:41;102609.38;;;23.19;32.45
59240;BME280;45010;53.640;10.578;2023-02-10T07:49:42;102607.44;;;23.13;32.62
59240;BME280;45010;53.640;10.578;2023-02-10T07:52:42;102620.03;;;23.19;32.51
59240;BME280;45010;53.640;10.578;2023-02-10T07:55:44;102619.72;;;23.14;32.21
59240;BME280;45010;53.640;10.578;2023-02-10T07:58:44;102623.72;;;23.18;32.47
59240;BME280;45010;53.640;10.578;2023-02-10T08:01:44;102627.38;;;23.17;32.34
59240;BME280;45010;53.640;10.578;2023-02-10T08:04:45;102626.38;;;23.18;32.49
59240;BME280;45010;53.640;10.578;2023-02-10T08:07:45;102614.13;;;23.09;32.48
59240;BME280;45010;53.640;10.578;2023-02-10T08:10:45;102629.03;;;23.18;32.44
59240;BME280;45010;53.640;10.578;2023-02-10T08:13:46;102627.38;;;23.17;32.68
59240;BME280;45010;53.640;10.578;2023-02-10T08:16:46;102622.91;;;23.18;32.28
59240;BME280;45010;53.640;10.578;2023-02-10T08:19:46;102613.75;;;23.12;32.62
59240;BME280;45010;53.640;10.578;2023-02-10T08:22:47;102615.06;;;23.16;32.64
59240;BME280;45010;53.640;10.578;2023-02-10T08:25:47;102616.72;;;23.17;32.53
59240;BME280;45010;53.640;10.578;2023-02-10T08:28:50;102614.59;;;23.13;32.36
59240;BME280;45010;53.640;10.578;2023-02-10T08:31:51;102625.34;;;23.19;32.74
59240;BME280;45010;53.640;10.578;2023-02-10T08:34:52;102613.06;;;23.18;32.52
59240;BME280;45010;53.640;10.578;2023-02-10T08:37:52;102620.03;;;23.19;32.56
59240;BME280;45010;53.640;10.578;2023-02-10T08:40:56;102618.38;;;23.18;32.28
59240;BME280;45010;53.640;10.578;2023-02-10T08:43:57;102622.06;;;23.17;32.37
59240;BME280;45010;53.640;10.578;2023-02-10T08:46:58;102622.06;;;23.17;32.23
59240;BME280;45010;53.640;10.578;2023-02-10T08:49:58;102621.22;;;23.17;32.50
59240;BME280;45010;53.640;10.578;2023-02-10T08:52:58;102616.09;;;23.15;32.51
59240;BME280;45010;53.640;10.578;2023-02-10T08:56:02;102613.44;;;23.15;32.67
59240;BME280;45010;53.640;10.578;2023-02-10T08:59:03;102608.09;;;23.15;32.62
59240;BME280;45010;53.640;10.578;2023-02-10T09:02:03;102611.75;;;23.14;32.60
59240;BME280;45010;53.640;10.578;2023-02-10T09:05:04;102617.06;;;23.14;32.23
59240;BME280;45010;53.640;10.578;2023-02-10T09:08:04;102607.13;;;23.08;32.40
59240;BME280;45010;53.640;10.578;2023-02-10T09:11:05;102580.25;;;22.94;32.38
59240;BME280;45010;53.640;10.578;2023-02-10T09:14:06;102603.81;;;23.06;32.64
59240;BME280;45010;53.640;10.578;2023-02-10T09:17:07;102601.78;;;23.08;32.37
59240;BME280;45010;53.640;10.578;2023-02-10T09:20:09;102617.06;;;23.14;32.55
59240;BME280;45010;53.640;10.578;2023-02-10T09:23:10;102611.94;;;23.13;32.66
59240;BME280;45010;53.640;10.578;2023-02-10T09:26:10;102619.09;;;23.12;32.26
59240;BME280;45010;53.640;10.578;2023-02-10T09:29:11;102610.09;;;23.13;32.64
59240;BME280;45010;53.640;10.578;2023-02-10T09:32:12;102613.94;;;23.10;32.63
59240;BME280;45010;53.640;10.578;2023-02-10T09:35:13;102605.94;;;23.10;32.56
59240;BME280;45010;53.640;10.578;2023-02-10T09:38:13;102616.59;;;23.10;32.47
59240;BME280;45010;53.640;10.578;2023-02-10T09:41:38;102620.25;;;23.09;32.49
59240;BME280;45010;53.640;10.578;2023-02-10T09:44:47;102626.44;;;23.10;32.29
59240;BME280;45010;53.640;10.578;2023-02-10T09:51:04;102603.56;;;22.92;32.35
59240;BME280;45010;53.640;10.578;2023-02-10T09:54:09;102613.81;;;23.04;32.85
59240;BME280;45010;53.640;10.578;2023-02-10T09:57:14;102631.59;;;23.03;32.60
59240;BME280;45010;53.640;10.578;2023-02-10T10:00:29;102650.53;;;23.08;32.44
59240;BME280;45010;53.640;10.578;2023-02-10T10:04:03;102653.53;;;23.05;32.44
59240;BME280;45010;53.640;10.578;2023-02-10T10:10:30;102648.41;;;23.04;33.15
59240;BME280;45010;53.640;10.578;2023-02-10T10:13:32;102633.94;;;22.98;33.08
59240;BME280;45010;53.640;10.578;2023-02-10T10:23:34;102660.34;;;23.08;33.85
59240;BME280;45010;53.640;10.578;2023-02-10T10:30:18;102644.75;;;23.05;33.37
59240;BME280;45010;53.640;10.578;2023-02-10T10:33:26;102651.72;;;23.06;33.48
59240;BME280;45010;53.640;10.578;2023-02-10T10:36:34;102658.66;;;23.15;33.54
59240;BME280;45010;53.640;10.578;2023-02-10T10:39:38;102638.72;;;23.11;33.62
59240;BME280;45010;53.640;10.578;2023-02-10T10:42:52;102650.31;;;23.18;33.38
59240;BME280;45010;53.640;10.578;2023-02-10T10:46:06;102637.72;;;23.12;33.37
59240;BME280;45010;53.640;10.578;2023-02-10T10:49:10;102656.97;;;23.22;33.48
59240;BME280;45010;53.640;10.578;2023-02-10T10:52:25;102658.28;;;23.27;33.42
59240;BME280;45010;53.640;10.578;2023-02-10T10:55:29;102660.75;;;23.28;33.11
59240;BME280;45010;53.640;10.578;2023-02-10T10:58:38;102664.94;;;23.31;32.93
59240;BME280;45010;53.640;10.578;2023-02-10T11:01:42;102662.94;;;23.33;33.41
59240;BME280;45010;53.640;10.578;2023-02-10T11:04:42;102662.56;;;23.36;32.88
59240;BME280;45010;53.640;10.578;2023-02-10T11:07:48;102663.22;;;23.38;32.90
59240;BME280;45010;53.640;10.578;2023-02-10T11:10:55;102663.06;;;23.40;33.22
59240;BME280;45010;53.640;10.578;2023-02-10T11:13:57;102658.56;;;23.40;33.00
59240;BME280;45010;53.640;10.578;2023-02-10T11:16:59;102647.56;;;23.43;33.20
59240;BME280;45010;53.640;10.578;2023-02-10T11:20:23;102658.03;;;23.45;32.97
59240;BME280;45010;53.640;10.578;2023-02-10T11:23:25;102636.91;;;23.43;32.96
59240;BME280;45010;53.640;10.578;2023-02-10T11:26:27;102637.84;;;23.50;33.01
59240;BME280;45010;53.640;10.578;2023-02-10T11:29:39;102637.50;;;23.54;32.62
59240;BME280;45010;53.640;10.578;2023-02-10T11:32:40;102639.81;;;23.57;32.62
59240;BME280;45010;53.640;10.578;2023-02-10T11:35:49;102631.66;;;23.58;32.44
59240;BME280;45010;53.640;10.578;2023-02-10T11:38:59;102633.13;;;23.61;32.87
59240;BME280;45010;53.640;10.578;2023-02-10T11:42:08;102621.53;;;23.54;32.73
59240;BME280;45010;53.640;10.578;2023-02-10T11:45:18;102613.47;;;23.62;32.50
59240;BME280;45010;53.640;10.578;2023-02-10T11:48:21;102615.16;;;23.63;33.01
59240;BME280;45010;53.640;10.578;2023-02-10T11:51:22;102628.41;;;23.71;32.75
59240;BME280;45010;53.640;10.578;2023-02-10T11:54:23;102622.69;;;23.74;32.57
59240;BME280;45010;53.640;10.578;2023-02-10T12:01:12;102613.72;;;23.75;32.36
59240;BME280;45010;53.640;10.578;2023-02-10T12:04:47;102615.00;;;23.80;32.46
59240;BME280;45010;53.640;10.578;2023-02-10T12:28:01;102564.06;;;23.98;32.18
59240;BME280;45010;53.640;10.578;2023-02-10T12:31:20;102555.91;;;23.99;32.26
59240;BME280;45010;53.640;10.578;2023-02-10T12:35:14;102555.50;;;24.02;32.04
59240;BME280;45010;53.640;10.578;2023-02-10T12:38:23;102554.50;;;24.03;32.16
59240;BME280;45010;53.640;10.578;2023-02-10T12:41:53;102549.84;;;24.05;32.01
59240;BME280;45010;53.640;10.578;2023-02-10T12:52:23;102530.50;;;24.03;30.73
59240;BME280;45010;53.640;10.578;2023-02-10T12:55:10;102513.72;;;24.03;31.22
59240;BME280;45010;53.640;10.578;2023-02-10T12:58:24;102529.81;;;24.10;31.04
59240;BME280;45010;53.640;10.578;2023-02-10T13:01:39;102516.31;;;24.11;31.27
59240;BME280;45010;53.640;10.578;2023-02-10T13:04:46;102514.16;;;24.07;31.57
59240;BME280;45010;53.640;10.578;2023-02-10T13:07:51;102512.44;;;24.14;31.71
59240;BME280;45010;53.640;10.578;2023-02-10T13:10:58;102519.59;;;24.13;31.77
59240;BME280;45010;53.640;10.578;2023-02-10T13:14:04;102497.66;;;24.11;31.71
59240;BME280;45010;53.640;10.578;2023-02-10T13:17:05;102506.09;;;24.15;31.53
59240;BME280;45010;53.640;10.578;2023-02-10T13:20:22;102509.03;;;24.20;31.61
59240;BME280;45010;53.640;10.578;2023-02-10T13:27:05;102491.00;;;24.22;31.81
59240;BME280;45010;53.640;10.578;2023-02-10T13:37:07;102492.31;;;24.26;31.26
59240;BME280;45010;53.640;10.578;2023-02-10T13:40:45;102478.97;;;24.26;30.26
59240;BME280;45010;53.640;10.578;2023-02-10T13:43:54;102478.34;;;24.24;30.23
59240;BME280;45010;53.640;10.578;2023-02-10T13:47:10;102472.16;;;24.24;30.28
59240;BME280;45010;53.640;10.578;2023-02-10T13:56:34;102463.34;;;24.23;30.65
59240;BME280;45010;53.640;10.578;2023-02-10T13:59:39;102452.44;;;24.18;30.98
59240;BME280;45010;53.640;10.578;2023-02-10T14:02:40;102444.22;;;24.20;30.72
59240;BME280;45010;53.640;10.578;2023-02-10T14:06:04;102444.31;;;24.26;30.81
59240;BME280;45010;53.640;10.578;2023-02-10T14:09:17;102441.38;;;24.21;30.65
59240;BME280;45010;53.640;10.578;2023-02-10T14:12:28;102427.03;;;24.22;30.83
59240;BME280;45010;53.640;10.578;2023-02-10T14:18:35;102428.31;;;24.26;30.83
59240;BME280;45010;53.640;10.578;2023-02-10T14:21:42;102430.34;;;24.24;30.87
59240;BME280;45010;53.640;10.578;2023-02-10T14:24:45;102418.69;;;24.25;30.92
59240;BME280;45010;53.640;10.578;2023-02-10T14:27:50;102438.22;;;24.33;30.78
59240;BME280;45010;53.640;10.578;2023-02-10T14:30:59;102432.91;;;24.33;30.72
59240;BME280;45010;53.640;10.578;2023-02-10T14:34:23;102438.22;;;24.33;30.92
59240;BME280;45010;53.640;10.578;2023-02-10T14:37:22;102420.13;;;24.28;30.60
59240;BME280;45010;53.640;10.578;2023-02-10T14:40:24;102416.47;;;24.29;30.88
59240;BME280;45010;53.640;10.578;2023-02-10T14:43:28;102411.13;;;24.29;30.94
59240;BME280;45010;53.640;10.578;2023-02-10T14:46:30;102412.78;;;24.30;30.73
59240;BME280;45010;53.640;10.578;2023-02-10T14:49:32;102409.09;;;24.31;31.00
59240;BME280;45010;53.640;10.578;2023-02-10T14:52:45;102393.78;;;24.18;30.97
59240;BME280;45010;53.640;10.578;2023-02-10T14:55:45;102409.16;;;24.38;30.99
59240;BME280;45010;53.640;10.578;2023-02-10T14:58:47;102410.81;;;24.39;30.72
59240;BME280;45010;53.640;10.578;2023-02-10T15:01:48;102393.09;;;24.31;30.89
59240;BME280;45010;53.640;10.578;2023-02-10T15:04:50;102405.88;;;24.36;30.74
59240;BME280;45010;53.640;10.578;2023-02-10T15:07:54;102403.75;;;24.31;30.58
59240;BME280;45010;53.640;10.578;2023-02-10T15:10:56;102404.84;;;24.37;30.60
59240;BME280;45010;53.640;10.578;2023-02-10T15:13:56;102390.69;;;24.36;30.69
59240;BME280;45010;53.640;10.578;2023-02-10T15:17:03;102399.53;;;24.37;30.73
59240;BME280;45010;53.640;10.578;2023-02-10T15:23:16;102388.94;;;24.28;31.02
59240;BME280;45010;53.640;10.578;2023-02-10T15:26:24;102376.72;;;24.34;30.88
59240;BME280;45010;53.640;10.578;2023-02-10T15:29:24;102359.88;;;24.34;30.75
59240;BME280;45010;53.640;10.578;2023-02-10T15:32:25;102365.22;;;24.34;30.93
59240;BME280;45010;53.640;10.578;2023-02-10T15:35:26;102363.56;;;24.33;30.86
59240;BME280;45010;53.640;10.578;2023-02-10T15:38:26;102368.91;;;24.33;31.18
59240;BME280;45010;53.640;10.578;2023-02-10T15:41:43;102385.75;;;24.33;31.32
59240;BME280;45010;53.640;10.578;2023-02-10T15:44:44;102383.25;;;24.31;31.28
59240;BME280;45010;53.640;10.578;2023-02-10T15:48:06;102373.34;;;24.25;31.49
59240;BME280;45010;53.640;10.578;2023-02-10T15:51:27;102382.41;;;24.31;31.43
59240;BME280;45010;53.640;10.578;2023-02-10T15:54:27;102376.28;;;24.30;31.42
59240;BME280;45010;53.640;10.578;2023-02-10T15:57:29;102383.25;;;24.31;31.64
59240;BME280;45010;53.640;10.578;2023-02-10T16:00:36;102377.94;;;24.31;31.84
59240;BME280;45010;53.640;10.578;2023-02-10T16:03:36;102395.75;;;24.31;32.13
59240;BME280;45010;53.640;10.578;2023-02-10T16:06:37;102377.09;;;24.31;31.91
59240;BME280;45010;53.640;10.578;2023-02-10T16:09:38;102388.59;;;24.31;31.71
59240;BME280;45010;53.640;10.578;2023-02-10T16:12:38;102392.28;;;24.30;32.02
59240;BME280;45010;53.640;10.578;2023-02-10T16:15:39;102377.78;;;24.18;32.04
59240;BME280;45010;53.640;10.578;2023-02-10T16:18:39;102391.00;;;24.26;32.17
59240;BME280;45010;53.640;10.578;2023-02-10T16:21:40;102380.44;;;24.18;32.01
59240;BME280;45010;53.640;10.578;2023-02-10T16:24:41;102394.72;;;24.32;31.99
59240;BME280;45010;53.640;10.578;2023-02-10T16:27:42;102382.25;;;24.33;32.03
59240;BME280;45010;53.640;10.578;2023-02-10T16:30:43;102372.97;;;24.28;32.10
59240;BME280;45010;53.640;10.578;2023-02-10T16:33:44;102356.81;;;24.15;32.25
59240;BME280;45010;53.640;10.578;2023-02-10T16:36:44;102389.22;;;24.34;32.41
59240;BME280;45010;53.640;10.578;2023-02-10T16:39:45;102386.38;;;24.35;32.30
59240;BME280;45010;53.640;10.578;2023-02-10T16:42:46;102381.88;;;24.36;32.36
59240;BME280;45010;53.640;10.578;2023-02-10T16:45:46;102397.88;;;24.36;32.35
59240;BME280;45010;53.640;10.578;2023-02-10T16:48:47;102370.94;;;24.30;32.42
59240;BME280;45010;53.640;10.578;2023-02-10T16:51:47;102392.53;;;24.36;32.54
59240;BME280;45010;53.640;10.578;2023-02-10T16:54:48;102387.84;;;24.38;32.36
59240;BME280;45010;53.640;10.578;2023-02-10T16:57:49;102383.88;;;24.34;32.22
59240;BME280;45010;53.640;10.578;2023-02-10T17:00:50;102382.13;;;24.41;32.30
59240;BME280;45010;53.640;10.578;2023-02-10T17:03:50;102384.59;;;24.42;32.45
59240;BME280;45010;53.640;10.578;2023-02-10T17:06:51;102370.19;;;24.37;32.40
59240;BME280;45010;53.640;10.578;2023-02-10T17:09:52;102388.09;;;24.43;32.25
59240;BME280;45010;53.640;10.578;2023-02-10T17:12:52;102359.88;;;24.34;32.46
59240;BME280;45010;53.640;10.578;2023-02-10T17:15:53;102372.72;;;24.45;32.75
59240;BME280;45010;53.640;10.578;2023-02-10T17:18:53;102369.03;;;24.46;32.66